sensor_id;sensor_type;location;lat;lon;timestamp;temperature;humidity
1996;DHT22;38556;47.068;15.408;2023-03-01T00:01:42;3.60;82.60
1996;DHT22;38556;47.068;15.408;2023-03-01T00:04:09;3.70;83.50
1996;DHT22;38556;47.068;15.408;2023-03-01T00:09:04;3.90;82.30
1996;DHT22;38556;47.068;15.408;2023-03-01T00:11:33;3.70;83.30
1996;DHT22;38556;47.068;15.408;2023-03-01T00:14:01;3.70;83.90
1996;DHT22;38556;47.068;15.408;2023-03-01T00:19:01;3.70;83.50
1996;DHT22;38556;47.068;15.408;2023-03-01T00:21:28;3.80;84.00
1996;DHT22;38556;47.068;15.408;2023-03-01T00:23:55;3.90;83.80
1996;DHT22;38556;47.068;15.408;2023-03-01T00:26:25;3.60;83.50
1996;DHT22;38556;47.068;15.408;2023-03-01T00:28:53;3.70;84.00
1996;DHT22;38556;47.068;15.408;2023-03-01T00:31:23;3.70;84.80
1996;DHT22;38556;47.068;15.408;2023-03-01T00:33:54;3.60;85.00
1996;DHT22;38556;47.068;15.408;2023-03-01T00:36:24;3.80;85.00
1996;DHT22;38556;47.068;15.408;2023-03-01T00:38:51;3.90;83.90
1996;DHT22;38556;47.068;15.408;2023-03-01T00:41:19;4.00;84.30
1996;DHT22;38556;47.068;15.408;2023-03-01T00:43:49;4.10;84.10
1996;DHT22;38556;47.068;15.408;2023-03-01T00:46:19;4.20;83.70
1996;DHT22;38556;47.068;15.408;2023-03-01T00:48:46;4.20;82.80
1996;DHT22;38556;47.068;15.408;2023-03-01T00:51:16;4.30;83.20
1996;DHT22;38556;47.068;15.408;2023-03-01T00:53:44;4.30;82.30
1996;DHT22;38556;47.068;15.408;2023-03-01T00:56:13;4.30;82.80
1996;DHT22;38556;47.068;15.408;2023-03-01T00:58:41;4.30;81.90
1996;DHT22;38556;47.068;15.408;2023-03-01T01:01:09;4.30;82.50
1996;DHT22;38556;47.068;15.408;2023-03-01T01:03:45;4.40;83.40
1996;DHT22;38556;47.068;15.408;2023-03-01T01:06:18;4.40;82.50
1996;DHT22;38556;47.068;15.408;2023-03-01T01:08:47;4.40;81.80
1996;DHT22;38556;47.068;15.408;2023-03-01T01:11:15;4.40;82.40
1996;DHT22;38556;47.068;15.408;2023-03-01T01:13:43;4.40;81.80
1996;DHT22;38556;47.068;15.408;2023-03-01T01:16:12;4.30;82.40
1996;DHT22;38556;47.068;15.408;2023-03-01T01:18:39;4.30;81.90
1996;DHT22;38556;47.068;15.408;2023-03-01T01:21:10;4.40;82.70
1996;DHT22;38556;47.068;15.408;2023-03-01T01:23:39;4.60;83.00
1996;DHT22;38556;47.068;15.408;2023-03-01T01:26:09;4.30;83.00
1996;DHT22;38556;47.068;15.408;2023-03-01T01:28:37;4.10;82.60
1996;DHT22;38556;47.068;15.408;2023-03-01T01:31:05;4.10;83.30
1996;DHT22;38556;47.068;15.408;2023-03-01T01:33:33;4.00;82.40
1996;DHT22;38556;47.068;15.408;2023-03-01T01:36:01;4.00;83.40
1996;DHT22;38556;47.068;15.408;2023-03-01T01:38:28;3.90;82.80
1996;DHT22;38556;47.068;15.408;2023-03-01T01:40:58;3.90;83.70
1996;DHT22;38556;47.068;15.408;2023-03-01T01:43:26;3.70;84.00
1996;DHT22;38556;47.068;15.408;2023-03-01T01:45:55;3.70;84.20
1996;DHT22;38556;47.068;15.408;2023-03-01T01:48:28;3.60;83.90
1996;DHT22;38556;47.068;15.408;2023-03-01T01:51:07;3.50;84.90
1996;DHT22;38556;47.068;15.408;2023-03-01T01:53:37;3.30;84.80
1996;DHT22;38556;47.068;15.408;2023-03-01T01:56:08;3.20;85.90
1996;DHT22;38556;47.068;15.408;2023-03-01T01:58:37;3.00;85.80
1996;DHT22;38556;47.068;15.408;2023-03-01T02:01:05;3.20;86.60
1996;DHT22;38556;47.068;15.408;2023-03-01T02:03:33;3.40;85.70
1996;DHT22;38556;47.068;15.408;2023-03-01T02:06:13;3.60;86.10
1996;DHT22;38556;47.068;15.408;2023-03-01T02:08:42;3.70;85.10
1996;DHT22;38556;47.068;15.408;2023-03-01T02:11:13;4.10;85.90
1996;DHT22;38556;47.068;15.408;2023-03-01T02:13:42;3.80;85.40
1996;DHT22;38556;47.068;15.408;2023-03-01T02:16:12;3.90;85.30
1996;DHT22;38556;47.068;15.408;2023-03-01T02:18:40;3.90;84.60
1996;DHT22;38556;47.068;15.408;2023-03-01T02:21:20;3.70;85.30
1996;DHT22;38556;47.068;15.408;2023-03-01T02:23:53;3.70;85.80
1996;DHT22;38556;47.068;15.408;2023-03-01T02:26:28;3.80;85.90
1996;DHT22;38556;47.068;15.408;2023-03-01T02:28:59;3.80;84.90
1996;DHT22;38556;47.068;15.408;2023-03-01T02:31:27;3.80;84.90
1996;DHT22;38556;47.068;15.408;2023-03-01T02:34:12;3.70;85.50
1996;DHT22;38556;47.068;15.408;2023-03-01T02:36:43;3.50;85.90
1996;DHT22;38556;47.068;15.408;2023-03-01T02:39:15;3.60;86.10
1996;DHT22;38556;47.068;15.408;2023-03-01T02:41:47;3.70;86.10
1996;DHT22;38556;47.068;15.408;2023-03-01T02:44:16;3.70;85.90
1996;DHT22;38556;47.068;15.408;2023-03-01T02:46:45;3.50;86.20
1996;DHT22;38556;47.068;15.408;2023-03-01T02:49:19;3.60;86.30
1996;DHT22;38556;47.068;15.408;2023-03-01T02:51:56;3.60;86.30
1996;DHT22;38556;47.068;15.408;2023-03-01T02:54:33;3.70;85.50
1996;DHT22;38556;47.068;15.408;2023-03-01T02:59:32;3.60;85.60
1996;DHT22;38556;47.068;15.408;2023-03-01T03:02:00;3.70;86.50
1996;DHT22;38556;47.068;15.408;2023-03-01T03:04:28;3.70;86.00
1996;DHT22;38556;47.068;15.408;2023-03-01T03:06:55;3.70;85.70
1996;DHT22;38556;47.068;15.408;2023-03-01T03:09:22;3.80;85.60
1996;DHT22;38556;47.068;15.408;2023-03-01T03:11:50;4.00;86.30
1996;DHT22;38556;47.068;15.408;2023-03-01T03:14:17;3.90;85.20
1996;DHT22;38556;47.068;15.408;2023-03-01T03:16:47;4.00;85.10
1996;DHT22;38556;47.068;15.408;2023-03-01T03:19:15;4.00;85.70
1996;DHT22;38556;47.068;15.408;2023-03-01T03:21:43;4.00;85.50
1996;DHT22;38556;47.068;15.408;2023-03-01T03:24:10;4.10;85.40
1996;DHT22;38556;47.068;15.408;2023-03-01T03:26:38;4.10;85.30
1996;DHT22;38556;47.068;15.408;2023-03-01T03:29:05;4.10;84.70
1996;DHT22;38556;47.068;15.408;2023-03-01T03:31:32;4.50;85.70
1996;DHT22;38556;47.068;15.408;2023-03-01T03:34:01;4.10;85.10
1996;DHT22;38556;47.068;15.408;2023-03-01T03:36:28;4.40;85.40
1996;DHT22;38556;47.068;15.408;2023-03-01T03:38:55;4.20;84.60
1996;DHT22;38556;47.068;15.408;2023-03-01T03:41:23;4.20;85.10
1996;DHT22;38556;47.068;15.408;2023-03-01T03:43:50;4.20;85.00
1996;DHT22;38556;47.068;15.408;2023-03-01T03:46:17;4.20;85.00
1996;DHT22;38556;47.068;15.408;2023-03-01T03:48:45;4.20;84.50
1996;DHT22;38556;47.068;15.408;2023-03-01T03:51:16;4.20;85.10
1996;DHT22;38556;47.068;15.408;2023-03-01T03:53:44;4.20;85.10
1996;DHT22;38556;47.068;15.408;2023-03-01T03:56:12;4.20;85.00
1996;DHT22;38556;47.068;15.408;2023-03-01T03:58:39;4.20;84.30
1996;DHT22;38556;47.068;15.408;2023-03-01T04:01:06;4.20;85.00
1996;DHT22;38556;47.068;15.408;2023-03-01T04:03:34;4.20;84.90
1996;DHT22;38556;47.068;15.408;2023-03-01T04:06:02;4.20;85.00
1996;DHT22;38556;47.068;15.408;2023-03-01T04:08:31;4.20;84.20
1996;DHT22;38556;47.068;15.408;2023-03-01T04:11:01;4.20;84.80
1996;DHT22;38556;47.068;15.408;2023-03-01T04:13:51;4.20;84.10
1996;DHT22;38556;47.068;15.408;2023-03-01T04:16:19;4.30;84.60
1996;DHT22;38556;47.068;15.408;2023-03-01T04:18:47;4.30;83.60
1996;DHT22;38556;47.068;15.408;2023-03-01T04:21:14;4.30;83.20
1996;DHT22;38556;47.068;15.408;2023-03-01T04:23:43;4.30;83.30
1996;DHT22;38556;47.068;15.408;2023-03-01T04:26:10;4.10;83.30
1996;DHT22;38556;47.068;15.408;2023-03-01T04:28:39;4.00;84.30
1996;DHT22;38556;47.068;15.408;2023-03-01T04:31:11;3.90;85.50
1996;DHT22;38556;47.068;15.408;2023-03-01T04:33:44;3.90;85.70
1996;DHT22;38556;47.068;15.408;2023-03-01T04:36:14;3.80;85.00
1996;DHT22;38556;47.068;15.408;2023-03-01T04:38:42;3.80;85.30
1996;DHT22;38556;47.068;15.408;2023-03-01T04:41:16;3.80;85.60
1996;DHT22;38556;47.068;15.408;2023-03-01T04:43:44;4.00;86.40
1996;DHT22;38556;47.068;15.408;2023-03-01T04:46:15;3.70;85.90
1996;DHT22;38556;47.068;15.408;2023-03-01T04:48:44;3.50;86.50
1996;DHT22;38556;47.068;15.408;2023-03-01T04:51:13;3.50;87.10
1996;DHT22;38556;47.068;15.408;2023-03-01T04:53:40;3.70;88.70
1996;DHT22;38556;47.068;15.408;2023-03-01T04:56:09;3.60;89.40
1996;DHT22;38556;47.068;15.408;2023-03-01T04:58:37;3.60;88.50
1996;DHT22;38556;47.068;15.408;2023-03-01T05:01:09;3.60;89.00
1996;DHT22;38556;47.068;15.408;2023-03-01T05:03:42;3.60;87.90
1996;DHT22;38556;47.068;15.408;2023-03-01T05:06:10;3.70;88.90
1996;DHT22;38556;47.068;15.408;2023-03-01T05:08:38;3.60;88.40
1996;DHT22;38556;47.068;15.408;2023-03-01T05:11:05;3.40;89.40
1996;DHT22;38556;47.068;15.408;2023-03-01T05:13:37;3.40;89.80
1996;DHT22;38556;47.068;15.408;2023-03-01T05:16:06;3.30;89.60
1996;DHT22;38556;47.068;15.408;2023-03-01T05:18:37;3.20;89.40
1996;DHT22;38556;47.068;15.408;2023-03-01T05:21:06;3.30;90.10
1996;DHT22;38556;47.068;15.408;2023-03-01T05:23:34;3.40;89.90
1996;DHT22;38556;47.068;15.408;2023-03-01T05:26:02;3.80;90.00
1996;DHT22;38556;47.068;15.408;2023-03-01T05:28:31;3.20;89.20
1996;DHT22;38556;47.068;15.408;2023-03-01T05:31:01;3.40;90.00
1996;DHT22;38556;47.068;15.408;2023-03-01T05:33:28;3.40;89.60
1996;DHT22;38556;47.068;15.408;2023-03-01T05:35:59;3.50;89.60
1996;DHT22;38556;47.068;15.408;2023-03-01T05:38:27;3.50;89.00
1996;DHT22;38556;47.068;15.408;2023-03-01T05:40:54;3.60;89.60
1996;DHT22;38556;47.068;15.408;2023-03-01T05:43:21;3.90;89.60
1996;DHT22;38556;47.068;15.408;2023-03-01T05:45:49;3.80;88.30
1996;DHT22;38556;47.068;15.408;2023-03-01T05:48:18;3.90;88.00
1996;DHT22;38556;47.068;15.408;2023-03-01T05:50:45;4.00;87.60
1996;DHT22;38556;47.068;15.408;2023-03-01T05:53:14;4.00;87.40
1996;DHT22;38556;47.068;15.408;2023-03-01T05:55:42;4.10;87.20
1996;DHT22;38556;47.068;15.408;2023-03-01T05:58:13;4.10;87.00
1996;DHT22;38556;47.068;15.408;2023-03-01T06:00:43;4.10;87.50
1996;DHT22;38556;47.068;15.408;2023-03-01T06:03:11;4.10;87.30
1996;DHT22;38556;47.068;15.408;2023-03-01T06:05:41;4.30;87.40
1996;DHT22;38556;47.068;15.408;2023-03-01T06:08:10;4.20;86.50
1996;DHT22;38556;47.068;15.408;2023-03-01T06:10:37;4.20;87.00
1996;DHT22;38556;47.068;15.408;2023-03-01T06:13:04;4.30;87.00
1996;DHT22;38556;47.068;15.408;2023-03-01T06:18:00;4.10;86.90
1996;DHT22;38556;47.068;15.408;2023-03-01T06:20:28;4.00;88.10
1996;DHT22;38556;47.068;15.408;2023-03-01T06:25:26;4.00;87.70
1996;DHT22;38556;47.068;15.408;2023-03-01T06:27:54;4.00;87.50
1996;DHT22;38556;47.068;15.408;2023-03-01T06:30:23;4.00;87.50
1996;DHT22;38556;47.068;15.408;2023-03-01T06:32:51;4.00;87.50
1996;DHT22;38556;47.068;15.408;2023-03-01T06:35:27;4.00;88.20
1996;DHT22;38556;47.068;15.408;2023-03-01T06:37:58;3.90;87.60
1996;DHT22;38556;47.068;15.408;2023-03-01T06:40:25;4.00;87.60
1996;DHT22;38556;47.068;15.408;2023-03-01T06:42:53;3.90;87.90
1996;DHT22;38556;47.068;15.408;2023-03-01T06:45:21;4.00;87.30
1996;DHT22;38556;47.068;15.408;2023-03-01T06:47:49;4.10;87.20
1996;DHT22;38556;47.068;15.408;2023-03-01T06:50:17;4.20;87.00
1996;DHT22;38556;47.068;15.408;2023-03-01T06:52:45;4.20;86.80
1996;DHT22;38556;47.068;15.408;2023-03-01T06:55:13;4.30;86.70
1996;DHT22;38556;47.068;15.408;2023-03-01T06:57:41;4.30;86.60
1996;DHT22;38556;47.068;15.408;2023-03-01T07:00:09;4.30;86.70
1996;DHT22;38556;47.068;15.408;2023-03-01T07:02:38;4.20;87.10
1996;DHT22;38556;47.068;15.408;2023-03-01T07:05:06;4.30;87.40
1996;DHT22;38556;47.068;15.408;2023-03-01T07:07:33;4.30;86.40
1996;DHT22;38556;47.068;15.408;2023-03-01T07:10:00;2.90;84.60
1996;DHT22;38556;47.068;15.408;2023-03-01T07:12:29;4.40;85.60
1996;DHT22;38556;47.068;15.408;2023-03-01T07:14:57;4.40;86.20
1996;DHT22;38556;47.068;15.408;2023-03-01T07:17:24;4.40;84.50
1996;DHT22;38556;47.068;15.408;2023-03-01T07:19:51;4.40;85.20
1996;DHT22;38556;47.068;15.408;2023-03-01T07:22:18;4.50;83.90
1996;DHT22;38556;47.068;15.408;2023-03-01T07:24:46;4.50;83.80
1996;DHT22;38556;47.068;15.408;2023-03-01T07:27:13;4.50;83.00
1996;DHT22;38556;47.068;15.408;2023-03-01T07:29:42;4.50;84.20
1996;DHT22;38556;47.068;15.408;2023-03-01T07:32:09;4.30;83.40
1996;DHT22;38556;47.068;15.408;2023-03-01T07:34:37;4.30;83.60
1996;DHT22;38556;47.068;15.408;2023-03-01T07:37:05;4.30;83.20
1996;DHT22;38556;47.068;15.408;2023-03-01T07:39:32;6.10;88.50
1996;DHT22;38556;47.068;15.408;2023-03-01T07:41:59;4.50;88.80
1996;DHT22;38556;47.068;15.408;2023-03-01T07:44:26;4.60;89.60
1996;DHT22;38556;47.068;15.408;2023-03-01T07:46:56;1.90;83.90
1996;DHT22;38556;47.068;15.408;2023-03-01T07:49:23;4.60;85.00
1996;DHT22;38556;47.068;15.408;2023-03-01T07:51:52;4.60;84.10
1996;DHT22;38556;47.068;15.408;2023-03-01T07:54:19;4.60;84.30
1996;DHT22;38556;47.068;15.408;2023-03-01T07:56:47;4.60;82.80
1996;DHT22;38556;47.068;15.408;2023-03-01T07:59:14;4.50;81.90
1996;DHT22;38556;47.068;15.408;2023-03-01T08:01:42;4.50;81.70
1996;DHT22;38556;47.068;15.408;2023-03-01T08:04:10;4.60;82.50
1996;DHT22;38556;47.068;15.408;2023-03-01T08:06:37;4.70;82.50
1996;DHT22;38556;47.068;15.408;2023-03-01T08:09:05;4.70;81.50
1996;DHT22;38556;47.068;15.408;2023-03-01T08:11:33;4.60;80.60
1996;DHT22;38556;47.068;15.408;2023-03-01T08:14:01;4.40;80.30
1996;DHT22;38556;47.068;15.408;2023-03-01T08:16:28;4.40;81.10
1996;DHT22;38556;47.068;15.408;2023-03-01T08:18:56;4.40;81.10
1996;DHT22;38556;47.068;15.408;2023-03-01T08:21:27;4.40;80.70
1996;DHT22;38556;47.068;15.408;2023-03-01T08:23:55;4.40;81.00
1996;DHT22;38556;47.068;15.408;2023-03-01T08:26:22;4.20;80.70
1996;DHT22;38556;47.068;15.408;2023-03-01T08:28:50;4.20;80.60
1996;DHT22;38556;47.068;15.408;2023-03-01T08:31:19;4.20;80.70
1996;DHT22;38556;47.068;15.408;2023-03-01T08:33:48;4.20;81.90
1996;DHT22;38556;47.068;15.408;2023-03-01T08:36:21;4.40;81.50
1996;DHT22;38556;47.068;15.408;2023-03-01T08:38:50;4.40;81.30
1996;DHT22;38556;47.068;15.408;2023-03-01T08:41:18;4.30;80.60
1996;DHT22;38556;47.068;15.408;2023-03-01T08:43:45;4.10;80.60
1996;DHT22;38556;47.068;15.408;2023-03-01T08:46:13;4.00;81.30
1996;DHT22;38556;47.068;15.408;2023-03-01T08:48:40;4.20;82.50
1996;DHT22;38556;47.068;15.408;2023-03-01T08:51:10;4.20;82.60
1996;DHT22;38556;47.068;15.408;2023-03-01T08:53:37;4.30;83.30
1996;DHT22;38556;47.068;15.408;2023-03-01T08:56:07;4.30;84.00
1996;DHT22;38556;47.068;15.408;2023-03-01T08:58:35;4.30;83.10
1996;DHT22;38556;47.068;15.408;2023-03-01T09:01:07;4.40;83.90
1996;DHT22;38556;47.068;15.408;2023-03-01T09:03:35;4.50;83.40
1996;DHT22;38556;47.068;15.408;2023-03-01T09:06:03;4.40;82.40
1996;DHT22;38556;47.068;15.408;2023-03-01T09:08:31;4.50;82.10
1996;DHT22;38556;47.068;15.408;2023-03-01T09:11:01;4.50;82.30
1996;DHT22;38556;47.068;15.408;2023-03-01T09:13:30;4.60;83.00
1996;DHT22;38556;47.068;15.408;2023-03-01T09:15:58;4.40;81.20
1996;DHT22;38556;47.068;15.408;2023-03-01T09:18:25;4.40;81.50
1996;DHT22;38556;47.068;15.408;2023-03-01T09:20:52;4.40;82.10
1996;DHT22;38556;47.068;15.408;2023-03-01T09:23:21;4.60;82.00
1996;DHT22;38556;47.068;15.408;2023-03-01T09:25:49;4.70;81.20
1996;DHT22;38556;47.068;15.408;2023-03-01T09:28:16;4.90;81.00
1996;DHT22;38556;47.068;15.408;2023-03-01T09:30:44;4.70;80.40
1996;DHT22;38556;47.068;15.408;2023-03-01T09:33:12;4.90;81.10
1996;DHT22;38556;47.068;15.408;2023-03-01T09:38:13;5.10;81.10
1996;DHT22;38556;47.068;15.408;2023-03-01T09:40:43;5.10;81.60
1996;DHT22;38556;47.068;15.408;2023-03-01T09:43:18;5.20;81.10
1996;DHT22;38556;47.068;15.408;2023-03-01T09:45:50;5.20;81.70
1996;DHT22;38556;47.068;15.408;2023-03-01T09:48:21;4.70;81.40
1996;DHT22;38556;47.068;15.408;2023-03-01T09:50:49;4.40;83.00
1996;DHT22;38556;47.068;15.408;2023-03-01T09:53:19;4.40;83.60
1996;DHT22;38556;47.068;15.408;2023-03-01T09:55:53;4.70;83.10
1996;DHT22;38556;47.068;15.408;2023-03-01T09:58:45;4.90;82.80
1996;DHT22;38556;47.068;15.408;2023-03-01T10:01:33;4.90;82.80
1996;DHT22;38556;47.068;15.408;2023-03-01T10:04:15;5.00;82.40
1996;DHT22;38556;47.068;15.408;2023-03-01T10:06:51;5.20;83.10
1996;DHT22;38556;47.068;15.408;2023-03-01T10:09:21;5.10;82.80
1996;DHT22;38556;47.068;15.408;2023-03-01T10:11:51;5.00;82.10
1996;DHT22;38556;47.068;15.408;2023-03-01T10:14:29;4.90;82.20
1996;DHT22;38556;47.068;15.408;2023-03-01T10:17:01;5.00;81.90
1996;DHT22;38556;47.068;15.408;2023-03-01T10:19:33;4.70;81.70
1996;DHT22;38556;47.068;15.408;2023-03-01T10:22:09;4.50;83.20
1996;DHT22;38556;47.068;15.408;2023-03-01T10:24:38;4.60;83.40
1996;DHT22;38556;47.068;15.408;2023-03-01T10:27:09;4.70;83.10
1996;DHT22;38556;47.068;15.408;2023-03-01T10:29:45;4.80;83.00
1996;DHT22;38556;47.068;15.408;2023-03-01T10:32:15;4.70;82.90
1996;DHT22;38556;47.068;15.408;2023-03-01T10:34:44;4.70;83.60
1996;DHT22;38556;47.068;15.408;2023-03-01T10:37:13;4.40;86.20
1996;DHT22;38556;47.068;15.408;2023-03-01T10:39:56;4.40;86.50
1996;DHT22;38556;47.068;15.408;2023-03-01T10:42:27;4.70;85.30
1996;DHT22;38556;47.068;15.408;2023-03-01T10:44:56;4.70;84.90
1996;DHT22;38556;47.068;15.408;2023-03-01T10:47:27;4.80;84.80
1996;DHT22;38556;47.068;15.408;2023-03-01T10:50:00;4.90;84.80
1996;DHT22;38556;47.068;15.408;2023-03-01T10:52:36;4.90;85.30
1996;DHT22;38556;47.068;15.408;2023-03-01T10:55:23;5.00;85.10
1996;DHT22;38556;47.068;15.408;2023-03-01T10:58:06;4.90;84.60
1996;DHT22;38556;47.068;15.408;2023-03-01T11:00:46;4.90;85.20
1996;DHT22;38556;47.068;15.408;2023-03-01T11:03:18;4.90;85.10
1996;DHT22;38556;47.068;15.408;2023-03-01T11:05:56;4.80;84.90
1996;DHT22;38556;47.068;15.408;2023-03-01T11:08:33;4.60;85.10
1996;DHT22;38556;47.068;15.408;2023-03-01T11:11:18;4.20;86.90
1996;DHT22;38556;47.068;15.408;2023-03-01T11:13:55;4.30;87.10
1996;DHT22;38556;47.068;15.408;2023-03-01T11:16:30;4.40;87.60
1996;DHT22;38556;47.068;15.408;2023-03-01T11:19:12;4.40;87.60
1996;DHT22;38556;47.068;15.408;2023-03-01T11:21:44;4.70;89.70
1996;DHT22;38556;47.068;15.408;2023-03-01T11:24:15;4.90;91.30
1996;DHT22;38556;47.068;15.408;2023-03-01T11:26:47;5.20;92.00
1996;DHT22;38556;47.068;15.408;2023-03-01T11:29:26;5.50;92.60
1996;DHT22;38556;47.068;15.408;2023-03-01T11:31:56;5.60;92.60
1996;DHT22;38556;47.068;15.408;2023-03-01T11:34:36;5.50;91.90
1996;DHT22;38556;47.068;15.408;2023-03-01T11:37:24;5.10;90.00
1996;DHT22;38556;47.068;15.408;2023-03-01T11:40:02;4.80;90.00
1996;DHT22;38556;47.068;15.408;2023-03-01T11:42:46;4.70;90.30
1996;DHT22;38556;47.068;15.408;2023-03-01T11:45:15;4.70;90.50
1996;DHT22;38556;47.068;15.408;2023-03-01T11:47:59;4.80;89.70
1996;DHT22;38556;47.068;15.408;2023-03-01T11:50:39;4.90;89.80
1996;DHT22;38556;47.068;15.408;2023-03-01T11:53:38;5.00;89.90
1996;DHT22;38556;47.068;15.408;2023-03-01T11:56:19;5.00;90.30
1996;DHT22;38556;47.068;15.408;2023-03-01T11:59:04;5.10;90.00
1996;DHT22;38556;47.068;15.408;2023-03-01T12:05:02;5.40;89.40
1996;DHT22;38556;47.068;15.408;2023-03-01T12:07:45;5.30;89.50
1996;DHT22;38556;47.068;15.408;2023-03-01T12:10:32;5.30;90.00
1996;DHT22;38556;47.068;15.408;2023-03-01T12:13:13;5.40;89.90
1996;DHT22;38556;47.068;15.408;2023-03-01T12:16:03;5.40;88.90
1996;DHT22;38556;47.068;15.408;2023-03-01T12:21:43;5.40;89.40
1996;DHT22;38556;47.068;15.408;2023-03-01T12:24:52;5.40;87.50
1996;DHT22;38556;47.068;15.408;2023-03-01T12:27:31;5.30;87.90
1996;DHT22;38556;47.068;15.408;2023-03-01T12:30:16;5.30;88.00
1996;DHT22;38556;47.068;15.408;2023-03-01T12:32:55;5.30;88.70
1996;DHT22;38556;47.068;15.408;2023-03-01T12:35:59;5.50;88.90
1996;DHT22;38556;47.068;15.408;2023-03-01T12:38:35;5.30;87.60
1996;DHT22;38556;47.068;15.408;2023-03-01T12:44:01;5.80;87.50
1996;DHT22;38556;47.068;15.408;2023-03-01T12:46:46;5.90;87.00
1996;DHT22;38556;47.068;15.408;2023-03-01T12:49:22;5.90;87.60
1996;DHT22;38556;47.068;15.408;2023-03-01T12:51:54;5.90;87.80
1996;DHT22;38556;47.068;15.408;2023-03-01T12:54:27;5.90;87.50
1996;DHT22;38556;47.068;15.408;2023-03-01T12:56:59;6.00;87.60
1996;DHT22;38556;47.068;15.408;2023-03-01T12:59:34;6.20;87.30
1996;DHT22;38556;47.068;15.408;2023-03-01T13:02:09;6.10;86.00
1996;DHT22;38556;47.068;15.408;2023-03-01T13:04:59;6.10;86.80
1996;DHT22;38556;47.068;15.408;2023-03-01T13:07:34;6.30;86.20
1996;DHT22;38556;47.068;15.408;2023-03-01T13:10:16;6.30;86.80
1996;DHT22;38556;47.068;15.408;2023-03-01T13:12:52;6.40;86.90
1996;DHT22;38556;47.068;15.408;2023-03-01T13:15:29;6.10;86.50
1996;DHT22;38556;47.068;15.408;2023-03-01T13:17:58;6.00;87.30
1996;DHT22;38556;47.068;15.408;2023-03-01T13:20:30;6.00;88.60
1996;DHT22;38556;47.068;15.408;2023-03-01T13:23:05;6.00;89.50
1996;DHT22;38556;47.068;15.408;2023-03-01T13:25:33;5.90;89.70
1996;DHT22;38556;47.068;15.408;2023-03-01T13:28:38;6.10;90.00
1996;DHT22;38556;47.068;15.408;2023-03-01T13:31:09;6.00;90.30
1996;DHT22;38556;47.068;15.408;2023-03-01T13:33:42;6.10;90.20
1996;DHT22;38556;47.068;15.408;2023-03-01T13:36:10;6.00;90.30
1996;DHT22;38556;47.068;15.408;2023-03-01T13:38:46;6.00;90.30
1996;DHT22;38556;47.068;15.408;2023-03-01T13:41:14;6.00;90.90
1996;DHT22;38556;47.068;15.408;2023-03-01T13:43:45;5.90;90.60
1996;DHT22;38556;47.068;15.408;2023-03-01T13:46:17;6.00;90.60
1996;DHT22;38556;47.068;15.408;2023-03-01T13:48:49;6.20;90.20
1996;DHT22;38556;47.068;15.408;2023-03-01T13:51:21;6.20;89.80
1996;DHT22;38556;47.068;15.408;2023-03-01T13:56:21;6.20;90.00
1996;DHT22;38556;47.068;15.408;2023-03-01T13:58:55;6.40;89.80
1996;DHT22;38556;47.068;15.408;2023-03-01T14:01:27;6.50;90.00
1996;DHT22;38556;47.068;15.408;2023-03-01T14:03:55;6.50;89.50
1996;DHT22;38556;47.068;15.408;2023-03-01T14:06:24;6.60;89.70
1996;DHT22;38556;47.068;15.408;2023-03-01T14:09:02;6.60;88.70
1996;DHT22;38556;47.068;15.408;2023-03-01T14:14:45;6.70;88.70
1996;DHT22;38556;47.068;15.408;2023-03-01T14:17:30;6.80;88.70
1996;DHT22;38556;47.068;15.408;2023-03-01T14:20:08;6.80;89.30
1996;DHT22;38556;47.068;15.408;2023-03-01T14:22:36;6.90;89.40
1996;DHT22;38556;47.068;15.408;2023-03-01T14:25:19;7.00;89.50
1996;DHT22;38556;47.068;15.408;2023-03-01T14:27:54;7.10;88.90
1996;DHT22;38556;47.068;15.408;2023-03-01T14:30:25;7.20;88.90
1996;DHT22;38556;47.068;15.408;2023-03-01T14:32:56;7.20;89.00
1996;DHT22;38556;47.068;15.408;2023-03-01T14:35:27;7.30;89.40
1996;DHT22;38556;47.068;15.408;2023-03-01T14:37:54;7.30;90.00
1996;DHT22;38556;47.068;15.408;2023-03-01T14:40:24;7.30;90.00
1996;DHT22;38556;47.068;15.408;2023-03-01T14:42:53;7.30;90.40
1996;DHT22;38556;47.068;15.408;2023-03-01T14:45:24;7.30;90.70
1996;DHT22;38556;47.068;15.408;2023-03-01T14:47:51;7.30;90.60
1996;DHT22;38556;47.068;15.408;2023-03-01T14:50:23;7.30;90.80
1996;DHT22;38556;47.068;15.408;2023-03-01T14:52:54;7.30;90.40
1996;DHT22;38556;47.068;15.408;2023-03-01T14:55:27;7.10;90.60
1996;DHT22;38556;47.068;15.408;2023-03-01T14:57:56;7.20;90.30
1996;DHT22;38556;47.068;15.408;2023-03-01T15:00:27;7.10;90.10
1996;DHT22;38556;47.068;15.408;2023-03-01T15:02:57;6.90;90.50
1996;DHT22;38556;47.068;15.408;2023-03-01T15:05:30;6.90;90.40
1996;DHT22;38556;47.068;15.408;2023-03-01T15:08:00;7.10;90.50
1996;DHT22;38556;47.068;15.408;2023-03-01T15:10:30;7.20;90.30
1996;DHT22;38556;47.068;15.408;2023-03-01T15:13:10;7.20;90.50
1996;DHT22;38556;47.068;15.408;2023-03-01T15:15:41;7.20;90.80
1996;DHT22;38556;47.068;15.408;2023-03-01T15:18:18;7.20;90.80
1996;DHT22;38556;47.068;15.408;2023-03-01T15:20:47;7.30;91.10
1996;DHT22;38556;47.068;15.408;2023-03-01T15:23:22;7.30;91.50
1996;DHT22;38556;47.068;15.408;2023-03-01T15:25:51;7.30;91.70
1996;DHT22;38556;47.068;15.408;2023-03-01T15:28:23;7.30;91.60
1996;DHT22;38556;47.068;15.408;2023-03-01T15:30:56;7.30;92.00
1996;DHT22;38556;47.068;15.408;2023-03-01T15:33:33;7.30;92.40
1996;DHT22;38556;47.068;15.408;2023-03-01T15:36:02;7.30;92.10
1996;DHT22;38556;47.068;15.408;2023-03-01T15:38:32;7.10;91.90
1996;DHT22;38556;47.068;15.408;2023-03-01T15:41:03;7.20;92.40
1996;DHT22;38556;47.068;15.408;2023-03-01T15:43:42;7.20;92.40
1996;DHT22;38556;47.068;15.408;2023-03-01T15:46:21;7.20;92.50
1996;DHT22;38556;47.068;15.408;2023-03-01T15:48:52;7.10;92.20
1996;DHT22;38556;47.068;15.408;2023-03-01T15:51:27;7.10;92.40
1996;DHT22;38556;47.068;15.408;2023-03-01T15:53:57;7.10;92.40
1996;DHT22;38556;47.068;15.408;2023-03-01T15:56:25;7.20;92.50
1996;DHT22;38556;47.068;15.408;2023-03-01T15:58:53;7.20;92.50
1996;DHT22;38556;47.068;15.408;2023-03-01T16:01:26;7.20;92.70
1996;DHT22;38556;47.068;15.408;2023-03-01T16:03:53;7.10;93.00
1996;DHT22;38556;47.068;15.408;2023-03-01T16:06:21;7.10;93.00
1996;DHT22;38556;47.068;15.408;2023-03-01T16:08:49;7.00;92.70
1996;DHT22;38556;47.068;15.408;2023-03-01T16:11:18;7.00;93.00
1996;DHT22;38556;47.068;15.408;2023-03-01T16:13:46;7.00;93.00
1996;DHT22;38556;47.068;15.408;2023-03-01T16:16:15;6.90;93.10
1996;DHT22;38556;47.068;15.408;2023-03-01T16:18:46;6.80;93.20
1996;DHT22;38556;47.068;15.408;2023-03-01T16:21:15;6.80;93.80
1996;DHT22;38556;47.068;15.408;2023-03-01T16:23:44;6.80;93.90
1996;DHT22;38556;47.068;15.408;2023-03-01T16:26:12;6.60;94.00
1996;DHT22;38556;47.068;15.408;2023-03-01T16:28:40;6.40;94.10
1996;DHT22;38556;47.068;15.408;2023-03-01T16:31:08;6.20;94.30
1996;DHT22;38556;47.068;15.408;2023-03-01T16:33:37;6.20;94.60
1996;DHT22;38556;47.068;15.408;2023-03-01T16:36:10;6.00;95.10
1996;DHT22;38556;47.068;15.408;2023-03-01T16:38:39;5.90;95.60
1996;DHT22;38556;47.068;15.408;2023-03-01T16:41:12;5.90;96.10